Time;durP1;ratioP1;P1;durP2;ratioP2;P2;SDS_P1;SDS_P2;PMS_P1;PMS_P2;Temp;Humidity;BMP_temperature;BMP_pressure;BME280_temperature;BME280_humidity;BME280_pressure;Samples;Min_cycle;Max_cycle;Signal;HPM_P1;HPM_P2
2023/01/25 00:01:51;;;;;;;68.95;21.80;;;;;;;7.84;100.00;103009.13;5036459;28;20029;-67
2023/01/25 00:04:17;;;;;;;71.18;22.33;;;;;;;7.77;100.00;103004.25;5054733;28;20024;-67
2023/01/25 00:06:43;;;;;;;84.32;22.40;;;;;;;7.85;100.00;103008.16;5065356;28;20013;-67
2023/01/25 00:09:09;;;;;;;80.90;22.95;;;;;;;7.81;100.00;102998.66;5056300;28;20136;-66
2023/01/25 00:11:36;;;;;;;93.25;23.65;;;;;;;7.88;100.00;102997.16;5065067;28;20041;-67
2023/01/25 00:14:02;;;;;;;75.88;21.42;;;;;;;7.84;100.00;103001.91;5054443;28;20040;-67
2023/01/25 00:16:27;;;;;;;74.38;21.50;;;;;;;7.91;100.00;102994.22;5058473;28;20035;-67
2023/01/25 00:18:53;;;;;;;82.68;23.15;;;;;;;7.92;100.00;102998.63;5053548;28;20052;-67
2023/01/25 00:21:22;;;;;;;81.35;21.92;;;;;;;7.86;100.00;102985.72;5054469;28;20396;-67
2023/01/25 00:23:49;;;;;;;86.78;21.65;;;;;;;7.71;100.00;102969.06;5054083;28;20028;-67
2023/01/25 00:26:15;;;;;;;85.55;24.17;;;;;;;7.93;100.00;103001.16;5054225;28;20029;-67
2023/01/25 00:28:41;;;;;;;72.38;22.15;;;;;;;8.00;100.00;102988.94;5054466;28;20078;-67
2023/01/25 00:31:10;;;;;;;82.07;22.50;;;;;;;8.07;100.00;102985.75;5054306;28;20029;-67
2023/01/25 00:34:00;;;;;;;86.25;23.13;;;;;;;8.00;100.00;102969.31;5052843;28;20036;-67
2023/01/25 00:36:26;;;;;;;76.93;22.33;;;;;;;7.94;100.00;102959.97;5054347;28;20033;-67
2023/01/25 00:38:56;;;;;;;76.88;22.77;;;;;;;8.02;100.00;102958.50;5053754;28;20408;-67
2023/01/25 00:41:21;;;;;;;87.32;23.17;;;;;;;8.07;100.00;102959.78;5053284;28;20033;-67
2023/01/25 00:43:47;;;;;;;97.45;25.05;;;;;;;8.10;100.00;102948.81;5053174;28;20502;-67
2023/01/25 00:46:16;;;;;;;84.90;23.92;;;;;;;8.07;100.00;102951.75;5055203;28;20062;-67
2023/01/25 00:48:42;;;;;;;89.80;23.15;;;;;;;8.11;100.00;102941.59;5054265;28;20503;-67
2023/01/25 00:51:08;;;;;;;84.10;24.25;;;;;;;8.15;100.00;102945.75;5054080;28;20033;-67
2023/01/25 00:53:33;;;;;;;91.93;24.83;;;;;;;8.13;100.00;102935.13;5052638;28;20028;-67
2023/01/25 00:55:59;;;;;;;106.90;24.63;;;;;;;8.19;100.00;102931.09;5052606;28;20108;-67
2023/01/25 00:58:24;;;;;;;87.95;24.55;;;;;;;8.20;100.00;102930.09;5053578;28;20396;-67
2023/01/25 01:00:52;;;;;;;94.05;24.73;;;;;;;8.21;100.00;102932.66;5053051;28;20031;-67
2023/01/25 01:03:17;;;;;;;103.03;24.23;;;;;;;8.08;100.00;102925.78;5052363;28;20025;-67
2023/01/25 01:05:42;;;;;;;92.43;25.55;;;;;;;8.15;100.00;102930.50;5035422;28;20554;-67
2023/01/25 01:08:08;;;;;;;96.88;26.05;;;;;;;8.10;100.00;102918.47;5053683;28;20071;-67
2023/01/25 01:10:33;;;;;;;96.13;25.95;;;;;;;8.02;100.00;102926.31;5053643;28;20024;-67
2023/01/25 01:12:58;;;;;;;91.72;24.20;;;;;;;8.01;100.00;102925.44;5052215;28;20031;-67
2023/01/25 01:15:24;;;;;;;103.40;25.65;;;;;;;8.03;100.00;102928.00;5053662;28;20029;-67
2023/01/25 01:17:49;;;;;;;94.90;26.88;;;;;;;8.02;100.00;102916.44;5053124;28;20049;-67
2023/01/25 01:20:15;;;;;;;98.85;25.75;;;;;;;7.91;100.00;102924.53;5053363;28;20142;-67
2023/01/25 01:22:40;;;;;;;94.20;26.52;;;;;;;8.00;100.00;102921.91;5052238;28;20086;-67
2023/01/25 01:25:07;;;;;;;104.88;26.80;;;;;;;8.00;100.00;102916.56;5053427;28;20025;-67
2023/01/25 01:27:32;;;;;;;102.25;26.63;;;;;;;7.99;100.00;102911.34;5050837;28;20230;-67
2023/01/25 01:29:57;;;;;;;112.63;28.40;;;;;;;8.01;100.00;102906.69;5052892;28;20573;-67
2023/01/25 01:32:23;;;;;;;108.97;27.73;;;;;;;8.05;100.00;102910.81;5035309;28;20033;-67
2023/01/25 01:34:48;;;;;;;100.13;26.45;;;;;;;8.04;100.00;102918.97;5053674;28;20093;-67
2023/01/25 01:37:14;;;;;;;105.50;28.13;;;;;;;7.97;100.00;102913.28;5062261;28;20032;-67
2023/01/25 01:39:39;;;;;;;115.90;27.83;;;;;;;7.97;100.00;102907.94;5073833;28;20051;-67
2023/01/25 01:42:05;;;;;;;95.88;26.40;;;;;;;7.99;100.00;102903.28;5069212;28;20074;-67
2023/01/25 01:44:49;;;;;;;111.05;27.52;;;;;;;7.98;100.00;102898.91;5052774;28;20396;-67
2023/01/25 01:47:24;;;;;;;110.88;28.25;;;;;;;7.87;100.00;102894.44;5055106;28;20059;-67
2023/01/25 01:49:56;;;;;;;118.80;28.35;;;;;;;7.92;100.00;102904.81;5057993;28;20282;-67
2023/01/25 01:52:26;;;;;;;109.15;28.90;;;;;;;7.91;100.00;102903.94;5052262;28;20024;-67
2023/01/25 01:54:59;;;;;;;115.30;29.67;;;;;;;7.80;100.00;102877.19;5052169;28;20444;-67
2023/01/25 01:57:33;;;;;;;120.43;29.10;;;;;;;7.83;100.00;102884.97;5053025;28;20021;-67
2023/01/25 02:00:05;;;;;;;111.60;27.90;;;;;;;7.84;100.00;102891.19;5051627;28;20037;-67
2023/01/25 02:02:30;;;;;;;117.78;28.85;;;;;;;7.83;100.00;102890.34;5051810;28;20124;-67
2023/01/25 02:04:59;;;;;;;112.70;29.50;;;;;;;7.77;100.00;102890.84;5035085;28;20071;-67
2023/01/25 02:07:36;;;;;;;98.97;28.00;;;;;;;7.76;100.00;102879.28;5051320;28;20029;-67
2023/01/25 02:10:08;;;;;;;118.60;30.70;;;;;;;7.83;100.00;102890.34;5052537;28;20068;-67
2023/01/25 02:12:35;;;;;;;102.95;27.23;;;;;;;7.82;100.00;102872.56;5052399;28;20063;-67
2023/01/25 02:15:01;;;;;;;103.72;30.30;;;;;;;7.77;100.00;102874.78;5052925;28;20083;-67
2023/01/25 02:17:29;;;;;;;118.80;28.95;;;;;;;7.84;100.00;102861.69;5051321;28;20521;-67
2023/01/25 02:20:00;;;;;;;116.68;29.95;;;;;;;7.80;100.00;102858.44;5052693;28;20106;-67
2023/01/25 02:22:37;;;;;;;95.70;28.73;;;;;;;7.81;100.00;102860.13;5051286;28;20464;-67
2023/01/25 02:25:08;;;;;;;108.32;31.27;;;;;;;7.82;100.00;102845.75;5052403;28;20033;-67
2023/01/25 02:27:38;;;;;;;103.75;30.23;;;;;;;7.87;100.00;102832.81;5052659;28;20040;-67
2023/01/25 02:30:04;;;;;;;112.43;30.00;;;;;;;7.93;100.00;102845.69;5052623;28;20112;-67
2023/01/25 02:32:31;;;;;;;110.55;29.42;;;;;;;7.96;100.00;102845.41;5051089;28;20047;-67
2023/01/25 02:34:56;;;;;;;100.68;29.33;;;;;;;7.89;100.00;102852.28;5053818;28;20025;-67
2023/01/25 02:37:22;;;;;;;118.70;30.73;;;;;;;7.84;100.00;102853.66;5055314;28;20054;-67
2023/01/25 02:39:47;;;;;;;109.70;31.10;;;;;;;7.88;100.00;102852.41;5054264;28;20067;-67
2023/01/25 02:42:12;;;;;;;100.60;30.25;;;;;;;7.90;100.00;102845.94;5057924;28;20071;-67
2023/01/25 02:44:38;;;;;;;96.82;29.25;;;;;;;7.81;100.00;102825.28;5057244;28;20033;-67
2023/01/25 02:47:03;;;;;;;97.20;28.58;;;;;;;7.89;100.00;102836.22;5042165;28;20470;-67
2023/01/25 02:49:29;;;;;;;95.22;28.83;;;;;;;7.85;100.00;102836.63;5059100;28;20535;-67
2023/01/25 02:51:56;;;;;;;91.32;29.25;;;;;;;7.81;100.00;102830.63;5059790;28;20051;-68
2023/01/25 02:54:23;;;;;;;90.35;27.40;;;;;;;7.94;100.00;102843.84;5058717;28;20029;-67
2023/01/25 02:56:49;;;;;;;85.95;25.45;;;;;;;7.87;100.00;102838.16;5058637;28;20051;-68
2023/01/25 02:59:15;;;;;;;83.22;25.23;;;;;;;7.87;100.00;102838.16;5055347;28;20036;-67
2023/01/25 03:01:41;;;;;;;80.57;24.05;;;;;;;7.94;100.00;102836.66;5055325;28;20052;-67
2023/01/25 03:04:08;;;;;;;71.75;22.80;;;;;;;7.91;100.00;102831.59;5054771;28;20364;-67
2023/01/25 03:06:34;;;;;;;69.03;22.17;;;;;;;7.85;100.00;102834.78;5054521;28;20063;-67
2023/01/25 03:09:00;;;;;;;74.28;22.67;;;;;;;7.93;100.00;102831.44;5054733;28;20092;-67
2023/01/25 03:11:25;;;;;;;72.57;20.50;;;;;;;7.85;100.00;102816.03;5055775;28;20159;-67
2023/01/25 03:13:51;;;;;;;74.68;21.35;;;;;;;7.88;100.00;102817.56;5055963;28;20383;-67
2023/01/25 03:16:16;;;;;;;56.75;18.35;;;;;;;7.75;100.00;102801.72;5064852;28;20032;-67
2023/01/25 03:18:42;;;;;;;64.50;18.95;;;;;;;7.76;100.00;102804.25;5073900;28;20080;-67
2023/01/25 03:21:10;;;;;;;69.32;20.63;;;;;;;7.73;100.00;102798.31;5070526;28;20088;-67
2023/01/25 03:23:36;;;;;;;70.28;19.85;;;;;;;7.86;100.00;102795.41;5055257;28;20376;-67
2023/01/25 03:26:12;;;;;;;55.95;17.98;;;;;;;7.86;100.00;102790.91;5055765;28;20452;-67
2023/01/25 03:28:39;;;;;;;58.65;18.85;;;;;;;7.87;100.00;102791.75;5059679;28;20610;-67
2023/01/25 03:31:06;;;;;;;50.08;18.08;;;;;;;7.91;100.00;102795.84;5056703;28;20024;-67
2023/01/25 03:33:31;;;;;;;84.03;20.27;;;;;;;7.98;100.00;102786.31;5054207;28;20025;-67
2023/01/25 03:35:58;;;;;;;58.88;18.85;;;;;;;7.92;100.00;102787.69;5056266;28;20033;-67
2023/01/25 03:38:24;;;;;;;60.33;18.02;;;;;;;7.88;100.00;102772.88;5058143;28;20044;-67
2023/01/25 03:40:50;;;;;;;63.42;18.45;;;;;;;7.88;100.00;102767.50;5054772;28;20040;-67
2023/01/25 03:43:16;;;;;;;62.78;18.35;;;;;;;7.77;100.00;102762.22;5055050;28;20480;-67
2023/01/25 03:45:41;;;;;;;62.45;17.33;;;;;;;7.70;100.00;102763.72;5037509;28;20036;-67
2023/01/25 03:48:06;;;;;;;64.03;18.27;;;;;;;7.79;100.00;102764.78;5055291;28;20033;-67
2023/01/25 03:50:32;;;;;;;60.45;17.35;;;;;;;7.70;100.00;102763.72;5036830;28;20041;-67
2023/01/25 03:53:02;;;;;;;67.38;18.23;;;;;;;7.60;100.00;102746.75;5053734;28;20036;-66
2023/01/25 03:55:28;;;;;;;56.85;17.25;;;;;;;7.63;100.00;102759.88;5055076;28;20783;-67
2023/01/25 03:57:53;;;;;;;56.83;17.40;;;;;;;7.71;100.00;102763.59;5054057;28;20469;-67
2023/01/25 04:00:19;;;;;;;63.20;19.30;;;;;;;7.75;100.00;102764.19;5036870;28;20025;-67
2023/01/25 04:02:49;;;;;;;62.55;18.65;;;;;;;7.76;100.00;102758.69;5054930;28;20044;-67
2023/01/25 04:05:14;;;;;;;47.47;15.82;;;;;;;7.65;100.00;102756.09;5054998;28;20061;-67
2023/01/25 04:07:40;;;;;;;55.20;18.42;;;;;;;7.70;100.00;102761.91;5055235;28;20033;-67
2023/01/25 04:10:06;;;;;;;48.78;16.73;;;;;;;7.70;100.00;102731.56;5057451;28;20116;-67
2023/01/25 04:12:31;;;;;;;61.38;18.38;;;;;;;7.84;100.00;102741.94;5037967;28;20507;-68
2023/01/25 04:14:57;;;;;;;58.72;18.15;;;;;;;7.71;100.00;102739.47;5055468;28;20132;-68
2023/01/25 04:17:22;;;;;;;61.45;17.70;;;;;;;7.78;100.00;102729.06;5053582;28;20052;-67
2023/01/25 04:19:48;;;;;;;63.55;17.98;;;;;;;7.75;100.00;102738.25;5053975;28;20039;-67
2023/01/25 04:22:14;;;;;;;56.15;17.65;;;;;;;7.75;100.00;102724.00;5054547;28;20384;-67
2023/01/25 04:24:39;;;;;;;47.08;15.30;;;;;;;7.64;100.00;102718.69;5053728;28;20080;-67
2023/01/25 04:27:05;;;;;;;62.78;17.83;;;;;;;7.74;100.00;102720.44;5052926;28;20400;-67
2023/01/25 04:29:30;;;;;;;51.63;18.33;;;;;;;7.66;100.00;102722.09;5052934;28;20051;-67
2023/01/25 04:31:56;;;;;;;60.88;18.95;;;;;;;7.65;100.00;102701.63;5054592;28;20025;-67
2023/01/25 04:34:21;;;;;;;67.95;19.30;;;;;;;7.75;100.00;102705.25;5054389;28;20364;-67
2023/01/25 04:36:47;;;;;;;54.97;18.58;;;;;;;7.68;100.00;102714.78;5054393;28;20049;-67
2023/01/25 04:39:12;;;;;;;64.53;18.98;;;;;;;7.70;100.00;102707.47;5052897;28;20036;-67
2023/01/25 04:41:38;;;;;;;59.92;18.38;;;;;;;7.76;100.00;102702.41;5053027;28;20036;-68
2023/01/25 04:44:03;;;;;;;65.50;19.83;;;;;;;7.72;100.00;102698.31;5052737;28;20083;-67
2023/01/25 04:46:28;;;;;;;59.33;20.65;;;;;;;7.79;100.00;102700.47;5052618;28;20438;-67
2023/01/25 04:48:54;;;;;;;63.33;19.83;;;;;;;7.71;100.00;102711.81;5071096;28;20068;-67
2023/01/25 04:51:19;;;;;;;52.35;19.90;;;;;;;7.79;100.00;102698.63;5073893;28;20067;-67
2023/01/25 04:53:45;;;;;;;57.85;19.90;;;;;;;7.79;100.00;102698.63;5054794;28;20025;-67
2023/01/25 04:56:10;;;;;;;52.30;19.40;;;;;;;7.81;100.00;102702.00;5056309;28;20025;-67
2023/01/25 04:58:36;;;;;;;41.97;17.65;;;;;;;7.83;100.00;102708.09;5057223;28;20037;-67
2023/01/25 05:01:02;;;;;;;52.65;17.95;;;;;;;7.75;100.00;102702.56;5056754;28;20078;-67
2023/01/25 05:03:27;;;;;;;46.80;16.70;;;;;;;7.72;100.00;102705.50;5056168;28;20044;-67
2023/01/25 05:05:53;;;;;;;52.67;18.00;;;;;;;7.57;100.00;102680.88;5055728;28;20041;-67
2023/01/25 05:08:18;;;;;;;50.83;17.48;;;;;;;7.80;100.00;102700.31;5036945;28;20033;-68
2023/01/25 05:10:44;;;;;;;45.53;18.55;;;;;;;7.67;100.00;102692.50;5052823;28;20477;-66
2023/01/25 05:13:10;;;;;;;58.95;18.65;;;;;;;7.65;100.00;102686.44;5053598;28;20029;-67
2023/01/25 05:15:35;;;;;;;58.38;20.33;;;;;;;7.72;100.00;102678.72;5053873;28;20025;-68
2023/01/25 05:18:02;;;;;;;55.15;17.83;;;;;;;7.68;100.00;102672.78;5053257;28;20593;-67
2023/01/25 05:20:27;;;;;;;43.05;15.93;;;;;;;7.56;100.00;102659.59;5052023;28;20033;-67
2023/01/25 05:22:53;;;;;;;47.08;19.55;;;;;;;7.64;100.00;102675.84;5051499;28;20060;-67
2023/01/25 05:28:06;;;;;;;60.53;19.52;;;;;;;7.62;100.00;102673.31;5060549;28;20052;-67
2023/01/25 05:30:32;;;;;;;51.72;18.67;;;;;;;7.65;100.00;102665.00;5056019;28;20116;-67
2023/01/25 05:32:58;;;;;;;42.25;18.60;;;;;;;7.72;100.00;102678.72;5052034;28;20052;-65
2023/01/25 05:35:23;;;;;;;51.38;19.15;;;;;;;7.65;100.00;102667.69;5051107;28;20033;-67
2023/01/25 05:37:48;;;;;;;51.90;17.92;;;;;;;7.58;100.00;102671.00;5053452;28;20033;-67
2023/01/25 05:40:14;;;;;;;41.67;17.17;;;;;;;7.62;100.00;102670.63;5018937;28;20146;-67
2023/01/25 05:42:40;;;;;;;59.42;18.77;;;;;;;7.76;100.00;102666.72;5052163;28;20119;-67
2023/01/25 05:45:07;;;;;;;49.45;17.35;;;;;;;7.67;100.00;102668.38;5053153;28;20036;-66
2023/01/25 05:47:32;;;;;;;40.95;15.77;;;;;;;7.60;100.00;102661.84;5050816;28;20024;-67
2023/01/25 05:49:57;;;;;;;42.03;15.05;;;;;;;7.52;100.00;102649.16;5051796;28;20044;-67
2023/01/25 05:52:23;;;;;;;42.45;15.68;;;;;;;7.63;100.00;102650.03;5052875;28;20028;-67
2023/01/25 05:54:48;;;;;;;47.88;17.20;;;;;;;7.58;100.00;102638.84;5052395;28;20066;-67
2023/01/25 05:57:15;;;;;;;41.13;16.42;;;;;;;7.65;100.00;102645.38;5052774;28;20415;-68
2023/01/25 05:59:40;;;;;;;43.63;16.52;;;;;;;7.66;100.00;102641.72;5054130;28;20049;-67
2023/01/25 06:02:06;;;;;;;52.38;18.05;;;;;;;7.69;100.00;102639.63;5053327;28;20381;-67
2023/01/25 06:04:31;;;;;;;50.72;18.65;;;;;;;7.73;100.00;102637.53;5053453;28;20037;-68
2023/01/25 06:06:57;;;;;;;48.55;17.10;;;;;;;7.72;100.00;102627.81;5034625;28;20024;-67
2023/01/25 06:09:22;;;;;;;49.22;18.20;;;;;;;7.65;100.00;102632.84;5034351;28;20037;-67
2023/01/25 06:11:48;;;;;;;42.58;17.58;;;;;;;7.63;100.00;102636.63;5051982;28;20125;-67
2023/01/25 06:14:14;;;;;;;48.58;16.38;;;;;;;7.56;100.00;102627.44;5049262;28;20067;-67
2023/01/25 06:16:39;;;;;;;48.78;19.10;;;;;;;7.61;100.00;102636.75;5051126;28;20467;-67
2023/01/25 06:19:06;;;;;;;47.35;18.42;;;;;;;7.70;100.00;102637.78;5050548;28;20037;-67
2023/01/25 06:21:34;;;;;;;57.20;18.45;;;;;;;7.68;100.00;102626.34;5052827;28;20127;-67
2023/01/25 06:23:59;;;;;;;47.95;17.98;;;;;;;7.58;100.00;102630.81;5050897;28;20054;-67
2023/01/25 06:26:24;;;;;;;46.65;18.40;;;;;;;7.65;100.00;102624.81;5049579;28;20032;-67
2023/01/25 06:28:50;;;;;;;50.60;18.45;;;;;;;7.58;100.00;102615.59;5052412;28;20055;-67
2023/01/25 06:31:17;;;;;;;42.97;19.23;;;;;;;7.68;100.00;102607.59;5051156;28;20032;-67
2023/01/25 06:33:48;;;;;;;41.47;17.52;;;;;;;7.59;100.00;102613.78;5050509;28;20037;-67
2023/01/25 06:36:17;;;;;;;46.95;17.63;;;;;;;7.63;100.00;102609.84;5051795;28;20036;-67
2023/01/25 06:38:42;;;;;;;41.20;16.73;;;;;;;7.64;100.00;102614.22;5051857;28;20040;-66
2023/01/25 06:41:11;;;;;;;49.58;18.23;;;;;;;7.49;100.00;102603.88;5034476;28;20040;-67
2023/01/25 06:43:37;;;;;;;45.70;19.30;;;;;;;7.61;100.00;102609.13;5035041;28;20025;-66
2023/01/25 06:46:05;;;;;;;50.55;18.60;;;;;;;7.64;100.00;102608.84;5054187;28;20056;-67
2023/01/25 06:48:31;;;;;;;46.60;18.83;;;;;;;7.59;100.00;102603.06;5053276;28;20056;-67
2023/01/25 06:51:00;;;;;;;48.55;19.13;;;;;;;7.69;100.00;102598.59;5052377;28;20021;-67
2023/01/25 06:53:27;;;;;;;45.30;19.27;;;;;;;7.64;100.00;102585.59;5053190;28;20056;-67
2023/01/25 06:55:57;;;;;;;41.95;18.38;;;;;;;7.46;100.00;102558.59;5051386;28;20021;-67
2023/01/25 06:58:22;;;;;;;49.35;19.92;;;;;;;7.44;100.00;102562.41;5053597;28;20560;-67
2023/01/25 07:00:48;;;;;;;50.30;19.13;;;;;;;7.52;100.00;102574.13;5052802;28;20045;-67
2023/01/25 07:03:13;;;;;;;48.78;19.58;;;;;;;7.50;100.00;102570.75;5052173;28;20037;-67
2023/01/25 07:05:38;;;;;;;58.75;20.40;;;;;;;7.52;100.00;102570.63;5034320;28;20496;-67
2023/01/25 07:08:04;;;;;;;48.97;19.42;;;;;;;7.50;100.00;102578.78;5034755;28;20036;-67
2023/01/25 07:10:29;;;;;;;52.88;21.17;;;;;;;7.54;100.00;102580.19;5052156;28;20507;-67
2023/01/25 07:12:55;;;;;;;54.83;21.92;;;;;;;7.48;100.00;102586.13;5050610;28;20502;-67
2023/01/25 07:15:20;;;;;;;38.58;17.52;;;;;;;7.45;100.00;102588.19;5052389;28;20108;-67
2023/01/25 07:17:46;;;;;;;53.08;21.05;;;;;;;7.51;100.00;102588.50;5050848;28;20064;-67
2023/01/25 07:20:11;;;;;;;47.10;20.13;;;;;;;7.54;100.00;102590.91;5052802;28;20115;-67
2023/01/25 07:22:37;;;;;;;64.47;22.17;;;;;;;7.56;100.00;102573.88;5052433;28;20545;-67
2023/01/25 07:25:03;;;;;;;51.80;20.92;;;;;;;7.51;100.00;102571.59;5052235;28;20500;-67
2023/01/25 07:27:32;;;;;;;56.88;22.88;;;;;;;7.60;100.00;102564.56;5054609;28;20033;-67
2023/01/25 07:29:58;;;;;;;58.28;22.45;;;;;;;7.59;100.00;102576.28;5056102;28;20092;-67
2023/01/25 07:32:23;;;;;;;55.63;22.65;;;;;;;7.60;100.00;102557.38;5055852;28;20061;-67
2023/01/25 07:34:49;;;;;;;59.45;22.85;;;;;;;7.68;100.00;102562.03;5053737;28;20028;-67
2023/01/25 07:37:14;;;;;;;62.08;24.02;;;;;;;7.67;100.00;102566.56;5037133;28;20036;-67
2023/01/25 07:39:46;;;;;;;68.85;23.17;;;;;;;7.45;100.00;102523.91;5055073;28;20120;-67
2023/01/25 07:42:11;;;;;;;59.33;23.70;;;;;;;7.58;100.00;102545.09;5056362;28;20062;-67
2023/01/25 07:44:37;;;;;;;55.28;22.55;;;;;;;7.67;100.00;102541.59;5038804;28;20048;-67
2023/01/25 07:47:02;;;;;;;64.47;23.13;;;;;;;7.58;100.00;102545.94;5057443;28;20395;-67
2023/01/25 07:49:28;;;;;;;61.47;23.42;;;;;;;7.59;100.00;102544.97;5055128;28;20037;-67
2023/01/25 07:51:53;;;;;;;64.10;24.48;;;;;;;7.54;100.00;102540.00;5055114;28;20036;-66
2023/01/25 07:54:18;;;;;;;75.47;25.58;;;;;;;7.56;100.00;102531.84;5037308;28;20033;-67
2023/01/25 07:56:44;;;;;;;66.75;24.38;;;;;;;7.58;100.00;102524.50;5053370;28;20418;-67
2023/01/25 07:59:09;;;;;;;67.72;24.50;;;;;;;7.59;100.00;102523.53;5053528;28;20052;-67
2023/01/25 08:01:35;;;;;;;67.75;26.10;;;;;;;7.51;100.00;102516.16;5055287;28;20032;-67
2023/01/25 08:04:02;;;;;;;66.60;25.80;;;;;;;7.43;100.00;102513.34;5054626;28;20021;-67
2023/01/25 08:06:37;;;;;;;71.20;24.67;;;;;;;7.54;100.00;102507.03;5058689;28;20032;-67
2023/01/25 08:09:07;;;;;;;80.18;25.52;;;;;;;7.53;100.00;102489.25;5053313;28;20025;-68
2023/01/25 08:11:33;;;;;;;75.30;25.83;;;;;;;7.60;100.00;102495.75;5053621;28;20024;-67
2023/01/25 08:14:00;;;;;;;73.97;28.17;;;;;;;7.60;100.00;102494.91;5053821;28;20052;-67
2023/01/25 08:16:28;;;;;;;76.40;26.45;;;;;;;7.50;100.00;102503.78;5052172;28;20036;-67
2023/01/25 08:18:55;;;;;;;64.82;26.35;;;;;;;7.53;100.00;102502.66;5053943;28;20053;-67
2023/01/25 08:21:24;;;;;;;71.13;26.90;;;;;;;7.52;100.00;102490.25;5053039;28;20107;-67
2023/01/25 08:23:50;;;;;;;70.90;27.20;;;;;;;7.51;100.00;102489.38;5053282;28;20033;-67
2023/01/25 08:26:16;;;;;;;70.55;27.30;;;;;;;7.50;100.00;102482.34;5052720;28;20032;-68
2023/01/25 08:28:41;;;;;;;76.18;28.98;;;;;;;7.50;100.00;102484.19;5054069;28;20087;-67
2023/01/25 08:31:18;;;;;;;65.63;25.98;;;;;;;7.47;100.00;102481.78;5054370;28;20064;-68
2023/01/25 08:33:45;;;;;;;73.53;26.75;;;;;;;7.33;100.00;102474.13;5054197;28;20036;-67
2023/01/25 08:36:12;;;;;;;76.30;28.02;;;;;;;7.38;100.00;102475.41;5054552;28;20028;-67
2023/01/25 08:38:38;;;;;;;74.95;27.52;;;;;;;7.50;100.00;102468.09;5053947;28;20115;-67
2023/01/25 08:41:08;;;;;;;77.65;28.25;;;;;;;7.39;100.00;102454.84;5052929;28;20143;-67
2023/01/25 08:43:34;;;;;;;67.95;26.27;;;;;;;7.46;100.00;102451.47;5053470;28;20032;-67
2023/01/25 08:46:00;;;;;;;70.85;26.45;;;;;;;7.42;100.00;102452.75;5053498;28;20028;-67
2023/01/25 08:48:26;;;;;;;69.70;25.85;;;;;;;7.42;100.00;102441.19;5052642;28;20033;-67
2023/01/25 08:50:51;;;;;;;63.85;24.20;;;;;;;7.39;100.00;102431.59;5054617;28;20028;-67
2023/01/25 08:53:17;;;;;;;80.15;27.15;;;;;;;7.46;100.00;102427.38;5053496;28;20487;-67
2023/01/25 08:55:43;;;;;;;61.78;24.67;;;;;;;7.21;100.00;102411.81;5055492;28;20032;-66
2023/01/25 08:58:10;;;;;;;70.22;26.63;;;;;;;7.24;100.00;102423.09;5053438;28;20028;-67
2023/01/25 09:00:37;;;;;;;68.43;27.13;;;;;;;7.42;100.00;102425.13;5053327;28;20123;-67
2023/01/25 09:03:03;;;;;;;71.25;26.92;;;;;;;7.37;100.00;102430.88;5052571;28;20255;-67
2023/01/25 09:05:28;;;;;;;61.90;25.00;;;;;;;7.47;100.00;102434.41;5034470;28;20381;-67
2023/01/25 09:07:54;;;;;;;60.50;26.15;;;;;;;7.40;100.00;102437.78;5051315;28;20455;-67
2023/01/25 09:10:19;;;;;;;71.88;25.80;;;;;;;7.54;100.00;102432.84;5051564;28;20132;-67
2023/01/25 09:12:45;;;;;;;66.90;26.42;;;;;;;7.57;100.00;102436.25;5035091;28;20039;-67
2023/01/25 09:15:10;;;;;;;63.28;24.38;;;;;;;7.61;100.00;102424.28;5050993;28;20040;-68
2023/01/25 09:17:37;;;;;;;59.50;25.23;;;;;;;7.53;100.00;102422.28;5052486;28;20103;-67
2023/01/25 09:20:06;;;;;;;49.72;23.85;;;;;;;7.52;100.00;102417.94;5053390;28;20036;-67
2023/01/25 09:22:31;;;;;;;61.58;25.33;;;;;;;7.51;100.00;102424.25;5051754;28;20244;-68
2023/01/25 09:24:56;;;;;;;57.05;24.52;;;;;;;7.53;100.00;102411.59;5052914;28;20126;-68
2023/01/25 09:27:22;;;;;;;60.80;24.13;;;;;;;7.56;100.00;102413.16;5053230;28;20043;-68
2023/01/25 09:29:47;;;;;;;59.05;24.45;;;;;;;7.46;100.00;102403.25;5052945;28;20036;-67
2023/01/25 09:32:13;;;;;;;63.42;23.55;;;;;;;7.46;100.00;102397.91;5053141;28;20053;-68
2023/01/25 09:34:38;;;;;;;53.38;23.60;;;;;;;7.46;100.00;102395.22;5051817;28;20029;-68
2023/01/25 09:37:04;;;;;;;68.45;25.80;;;;;;;7.55;100.00;102385.50;5051508;28;20032;-68
2023/01/25 09:39:29;;;;;;;57.70;24.63;;;;;;;7.56;100.00;102392.56;5052199;28;20032;-67
2023/01/25 09:42:19;;;;;;;54.60;22.15;;;;;;;7.54;100.00;102381.97;5051295;28;20037;-67
2023/01/25 09:45:03;;;;;;;62.45;23.48;;;;;;;7.49;100.00;102370.00;5051105;28;20024;-67
2023/01/25 09:47:46;;;;;;;63.03;24.90;;;;;;;7.55;100.00;102366.75;5052171;28;20103;-67
2023/01/25 09:50:37;;;;;;;57.25;23.95;;;;;;;7.58;100.00;102355.75;5051869;28;20431;-67
2023/01/25 09:53:11;;;;;;;61.70;24.33;;;;;;;7.54;100.00;102349.81;5051736;28;20070;-67
2023/01/25 09:55:38;;;;;;;57.25;23.42;;;;;;;7.54;100.00;102352.50;5052374;28;20029;-67
2023/01/25 09:58:11;;;;;;;64.05;24.55;;;;;;;7.54;100.00;102352.50;5034315;28;20033;-67
2023/01/25 10:00:44;;;;;;;60.00;24.88;;;;;;;7.47;100.00;102351.38;5052044;28;20080;-67
2023/01/25 10:03:26;;;;;;;60.90;23.77;;;;;;;7.42;100.00;102339.41;5052411;28;20021;-68
2023/01/25 10:05:56;;;;;;;63.90;24.25;;;;;;;7.54;100.00;102338.25;5052330;28;20100;-67
2023/01/25 10:08:39;;;;;;;65.20;24.77;;;;;;;7.50;100.00;102327.00;5052664;28;20415;-67
2023/01/25 10:11:19;;;;;;;64.78;24.65;;;;;;;7.55;100.00;102329.25;5051792;28;20029;-68
2023/01/25 10:13:45;;;;;;;63.30;23.92;;;;;;;7.53;100.00;102329.38;5052031;28;20025;-67
2023/01/25 10:16:33;;;;;;;59.30;24.33;;;;;;;7.58;100.00;102330.78;5051033;28;20032;-67
2023/01/25 10:19:17;;;;;;;50.53;23.45;;;;;;;7.43;100.00;102336.59;5044103;28;20061;-67
2023/01/25 10:21:48;;;;;;;57.17;23.80;;;;;;;7.46;100.00;102336.31;5051764;28;20037;-67
2023/01/25 10:24:51;;;;;;;58.22;24.77;;;;;;;7.24;100.00;102326.69;5051591;28;20033;-66
2023/01/25 10:27:44;;;;;;;70.05;25.42;;;;;;;7.44;100.00;102332.91;5051580;28;20071;-67
2023/01/25 10:30:25;;;;;;;59.65;23.10;;;;;;;7.46;100.00;102336.31;5051863;28;20029;-67
2023/01/25 10:32:55;;;;;;;53.70;23.63;;;;;;;7.46;100.00;102327.44;5051903;28;20028;-68
2023/01/25 10:35:28;;;;;;;54.80;22.63;;;;;;;7.54;100.00;102317.69;5052518;28;20025;-68
2023/01/25 10:37:55;;;;;;;61.45;23.65;;;;;;;7.41;100.00;102301.06;5050787;28;20017;-68
2023/01/25 10:40:23;;;;;;;67.95;24.25;;;;;;;7.44;100.00;102299.94;5052367;28;20033;-67
2023/01/25 10:42:58;;;;;;;55.88;23.88;;;;;;;7.48;100.00;102291.50;5052263;28;20037;-67
2023/01/25 10:45:23;;;;;;;59.97;23.35;;;;;;;7.44;100.00;102289.22;5052205;28;20142;-67
2023/01/25 10:47:56;;;;;;;54.15;23.42;;;;;;;7.57;100.00;102287.09;5050505;28;20464;-67
2023/01/25 10:50:45;;;;;;;56.55;23.95;;;;;;;7.63;100.00;102280.31;5051649;28;20033;-67
2023/01/25 10:53:23;;;;;;;56.28;23.40;;;;;;;7.70;100.00;102282.28;5051684;28;20021;-67
2023/01/25 10:56:02;;;;;;;53.17;22.13;;;;;;;7.72;100.00;102269.59;5051817;28;20087;-67
2023/01/25 10:58:35;;;;;;;52.67;21.38;;;;;;;7.76;100.00;102267.47;5049805;28;20025;-67
2023/01/25 11:01:01;;;;;;;58.22;21.80;;;;;;;7.80;100.00;102252.78;5051752;28;20057;-67
2023/01/25 11:03:40;;;;;;;57.17;21.48;;;;;;;7.82;100.00;102274.94;5055542;28;20025;-67
2023/01/25 11:06:08;;;;;;;51.72;21.60;;;;;;;7.75;100.00;102281.84;5056609;28;20078;-67
2023/01/25 11:08:38;;;;;;;52.10;21.85;;;;;;;7.68;100.00;102254.78;5055307;28;20416;-67
2023/01/25 11:11:24;;;;;;;59.30;22.45;;;;;;;7.70;100.00;102281.44;5055050;28;20040;-67
2023/01/25 11:13:53;;;;;;;57.97;22.92;;;;;;;7.77;100.00;102255.75;5054794;28;20025;-67
2023/01/25 11:16:24;;;;;;;59.45;24.00;;;;;;;7.75;100.00;102258.59;5056041;28;20021;-68